sensor_id;sensor_type;location;lat;lon;timestamp;temperature;humidity
1716;DHT22;855;48.824;9.220;2022-10-23T00:00:23;14.00;93.50
1716;DHT22;855;48.824;9.220;2022-10-23T00:02:52;14.00;93.50
1716;DHT22;855;48.824;9.220;2022-10-23T00:05:21;14.00;93.50
1716;DHT22;855;48.824;9.220;2022-10-23T00:07:49;14.00;93.40
1716;DHT22;855;48.824;9.220;2022-10-23T00:10:17;14.00;93.50
1716;DHT22;855;48.824;9.220;2022-10-23T00:12:45;14.00;93.50
1716;DHT22;855;48.824;9.220;2022-10-23T00:15:15;14.00;93.40
1716;DHT22;855;48.824;9.220;2022-10-23T00:17:43;13.90;93.20
1716;DHT22;855;48.824;9.220;2022-10-23T00:20:12;13.90;93.20
1716;DHT22;855;48.824;9.220;2022-10-23T00:22:40;13.80;93.20
1716;DHT22;855;48.824;9.220;2022-10-23T00:25:08;13.80;93.30
1716;DHT22;855;48.824;9.220;2022-10-23T00:27:36;13.80;93.40
1716;DHT22;855;48.824;9.220;2022-10-23T00:30:04;13.70;93.40
1716;DHT22;855;48.824;9.220;2022-10-23T00:32:31;13.70;93.50
1716;DHT22;855;48.824;9.220;2022-10-23T00:34:58;13.60;93.60
1716;DHT22;855;48.824;9.220;2022-10-23T00:37:27;13.60;93.80
1716;DHT22;855;48.824;9.220;2022-10-23T00:39:54;13.50;93.90
1716;DHT22;855;48.824;9.220;2022-10-23T00:42:22;13.60;94.00
1716;DHT22;855;48.824;9.220;2022-10-23T00:45:10;13.50;93.90
1716;DHT22;855;48.824;9.220;2022-10-23T00:47:38;13.30;94.00
1716;DHT22;855;48.824;9.220;2022-10-23T00:50:06;13.00;94.80
1716;DHT22;855;48.824;9.220;2022-10-23T00:52:40;13.00;95.50
1716;DHT22;855;48.824;9.220;2022-10-23T00:55:08;13.10;95.30
1716;DHT22;855;48.824;9.220;2022-10-23T00:57:37;13.20;95.10
1716;DHT22;855;48.824;9.220;2022-10-23T01:00:07;13.20;94.80
1716;DHT22;855;48.824;9.220;2022-10-23T01:02:35;13.20;94.80
1716;DHT22;855;48.824;9.220;2022-10-23T01:05:02;13.30;94.60
1716;DHT22;855;48.824;9.220;2022-10-23T01:07:33;13.30;94.50
1716;DHT22;855;48.824;9.220;2022-10-23T01:10:10;13.30;94.30
1716;DHT22;855;48.824;9.220;2022-10-23T01:12:44;13.30;94.30
1716;DHT22;855;48.824;9.220;2022-10-23T01:15:16;13.30;94.20
1716;DHT22;855;48.824;9.220;2022-10-23T01:17:49;13.30;94.10
1716;DHT22;855;48.824;9.220;2022-10-23T01:20:35;13.20;94.00
1716;DHT22;855;48.824;9.220;2022-10-23T01:23:26;13.20;94.00
1716;DHT22;855;48.824;9.220;2022-10-23T01:26:06;13.20;93.90
1716;DHT22;855;48.824;9.220;2022-10-23T01:28:43;13.10;94.10
1716;DHT22;855;48.824;9.220;2022-10-23T01:31:15;13.00;94.30
1716;DHT22;855;48.824;9.220;2022-10-23T01:33:46;13.00;94.10
1716;DHT22;855;48.824;9.220;2022-10-23T01:36:15;13.00;94.10
1716;DHT22;855;48.824;9.220;2022-10-23T01:38:45;12.90;94.10
1716;DHT22;855;48.824;9.220;2022-10-23T01:41:16;12.90;94.20
1716;DHT22;855;48.824;9.220;2022-10-23T01:43:50;12.90;94.10
1716;DHT22;855;48.824;9.220;2022-10-23T01:46:20;12.90;94.10
1716;DHT22;855;48.824;9.220;2022-10-23T01:48:50;12.90;94.10
1716;DHT22;855;48.824;9.220;2022-10-23T01:51:20;12.90;94.10
1716;DHT22;855;48.824;9.220;2022-10-23T01:53:49;12.90;94.10
1716;DHT22;855;48.824;9.220;2022-10-23T01:56:19;12.90;94.10
1716;DHT22;855;48.824;9.220;2022-10-23T01:58:50;12.90;94.10
1716;DHT22;855;48.824;9.220;2022-10-23T02:01:21;12.90;93.90
1716;DHT22;855;48.824;9.220;2022-10-23T02:03:49;12.80;94.00
1716;DHT22;855;48.824;9.220;2022-10-23T02:06:16;12.80;94.10
1716;DHT22;855;48.824;9.220;2022-10-23T02:08:43;12.80;94.10
1716;DHT22;855;48.824;9.220;2022-10-23T02:11:13;12.80;94.00
1716;DHT22;855;48.824;9.220;2022-10-23T02:13:43;12.80;94.20
1716;DHT22;855;48.824;9.220;2022-10-23T02:16:20;12.80;94.20
1716;DHT22;855;48.824;9.220;2022-10-23T02:18:53;12.80;94.20
1716;DHT22;855;48.824;9.220;2022-10-23T02:21:27;12.70;94.20
1716;DHT22;855;48.824;9.220;2022-10-23T02:24:00;12.70;94.20
1716;DHT22;855;48.824;9.220;2022-10-23T02:26:31;12.70;94.10
1716;DHT22;855;48.824;9.220;2022-10-23T02:29:03;12.60;94.30
1716;DHT22;855;48.824;9.220;2022-10-23T02:31:33;12.70;94.30
1716;DHT22;855;48.824;9.220;2022-10-23T02:33:59;12.70;94.40
1716;DHT22;855;48.824;9.220;2022-10-23T02:36:26;12.70;94.40
1716;DHT22;855;48.824;9.220;2022-10-23T02:38:53;12.70;94.30
1716;DHT22;855;48.824;9.220;2022-10-23T02:41:32;12.70;94.40
1716;DHT22;855;48.824;9.220;2022-10-23T02:44:24;12.70;94.40
1716;DHT22;855;48.824;9.220;2022-10-23T02:47:04;12.70;94.60
1716;DHT22;855;48.824;9.220;2022-10-23T02:49:38;12.70;94.60
1716;DHT22;855;48.824;9.220;2022-10-23T02:52:11;12.70;94.60
1716;DHT22;855;48.824;9.220;2022-10-23T02:54:59;12.70;94.60
1716;DHT22;855;48.824;9.220;2022-10-23T02:57:31;12.70;94.60
1716;DHT22;855;48.824;9.220;2022-10-23T03:00:04;12.60;94.60
1716;DHT22;855;48.824;9.220;2022-10-23T03:02:36;12.70;94.70
1716;DHT22;855;48.824;9.220;2022-10-23T03:05:08;12.60;94.70
1716;DHT22;855;48.824;9.220;2022-10-23T03:07:35;12.60;94.90
1716;DHT22;855;48.824;9.220;2022-10-23T03:10:02;12.60;95.00
1716;DHT22;855;48.824;9.220;2022-10-23T03:12:29;12.50;95.20
1716;DHT22;855;48.824;9.220;2022-10-23T03:14:56;12.50;95.30
1716;DHT22;855;48.824;9.220;2022-10-23T03:17:23;12.50;95.40
1716;DHT22;855;48.824;9.220;2022-10-23T03:19:51;12.60;95.40
1716;DHT22;855;48.824;9.220;2022-10-23T03:22:18;12.60;95.40
1716;DHT22;855;48.824;9.220;2022-10-23T03:24:45;12.60;95.30
1716;DHT22;855;48.824;9.220;2022-10-23T03:27:12;12.60;95.20
1716;DHT22;855;48.824;9.220;2022-10-23T03:29:39;12.60;94.90
1716;DHT22;855;48.824;9.220;2022-10-23T03:32:06;12.60;95.00
1716;DHT22;855;48.824;9.220;2022-10-23T03:34:32;12.60;94.90
1716;DHT22;855;48.824;9.220;2022-10-23T03:37:01;12.60;95.10
1716;DHT22;855;48.824;9.220;2022-10-23T03:39:28;12.50;95.20
1716;DHT22;855;48.824;9.220;2022-10-23T03:41:55;12.50;95.30
1716;DHT22;855;48.824;9.220;2022-10-23T03:44:21;12.50;95.20
1716;DHT22;855;48.824;9.220;2022-10-23T03:46:48;12.60;95.20
1716;DHT22;855;48.824;9.220;2022-10-23T03:49:15;12.60;95.20
1716;DHT22;855;48.824;9.220;2022-10-23T03:51:42;12.60;95.10
1716;DHT22;855;48.824;9.220;2022-10-23T03:54:18;12.60;95.10
1716;DHT22;855;48.824;9.220;2022-10-23T03:56:45;12.60;95.00
1716;DHT22;855;48.824;9.220;2022-10-23T03:59:12;12.60;94.90
1716;DHT22;855;48.824;9.220;2022-10-23T04:01:38;12.60;94.80
1716;DHT22;855;48.824;9.220;2022-10-23T04:04:05;12.60;94.80
1716;DHT22;855;48.824;9.220;2022-10-23T04:06:32;12.60;94.80
1716;DHT22;855;48.824;9.220;2022-10-23T04:08:59;12.60;94.70
1716;DHT22;855;48.824;9.220;2022-10-23T04:11:28;12.60;94.70
1716;DHT22;855;48.824;9.220;2022-10-23T04:13:54;12.60;94.70
1716;DHT22;855;48.824;9.220;2022-10-23T04:16:21;12.60;94.70
1716;DHT22;855;48.824;9.220;2022-10-23T04:18:48;12.60;94.80
1716;DHT22;855;48.824;9.220;2022-10-23T04:21:16;12.60;95.00
1716;DHT22;855;48.824;9.220;2022-10-23T04:23:42;12.70;95.00
1716;DHT22;855;48.824;9.220;2022-10-23T04:26:09;12.70;94.90
1716;DHT22;855;48.824;9.220;2022-10-23T04:28:38;12.70;95.10
1716;DHT22;855;48.824;9.220;2022-10-23T04:31:05;12.70;95.20
1716;DHT22;855;48.824;9.220;2022-10-23T04:33:32;12.70;95.10
1716;DHT22;855;48.824;9.220;2022-10-23T04:35:59;12.60;95.20
1716;DHT22;855;48.824;9.220;2022-10-23T04:38:25;12.60;95.60
1716;DHT22;855;48.824;9.220;2022-10-23T04:40:52;12.60;95.80
1716;DHT22;855;48.824;9.220;2022-10-23T04:43:19;12.60;95.90
1716;DHT22;855;48.824;9.220;2022-10-23T04:45:49;12.60;95.80
1716;DHT22;855;48.824;9.220;2022-10-23T04:48:16;12.60;95.90
1716;DHT22;855;48.824;9.220;2022-10-23T04:50:42;12.60;95.80
1716;DHT22;855;48.824;9.220;2022-10-23T04:53:09;12.70;96.00
1716;DHT22;855;48.824;9.220;2022-10-23T04:55:36;12.60;95.90
1716;DHT22;855;48.824;9.220;2022-10-23T04:58:03;12.70;96.10
1716;DHT22;855;48.824;9.220;2022-10-23T05:00:30;12.70;96.00
1716;DHT22;855;48.824;9.220;2022-10-23T05:02:58;12.70;96.00
1716;DHT22;855;48.824;9.220;2022-10-23T05:05:25;12.70;96.00
1716;DHT22;855;48.824;9.220;2022-10-23T05:07:51;12.80;95.90
1716;DHT22;855;48.824;9.220;2022-10-23T05:10:18;12.80;95.80
1716;DHT22;855;48.824;9.220;2022-10-23T05:12:45;12.80;95.80
1716;DHT22;855;48.824;9.220;2022-10-23T05:15:12;12.80;95.70
1716;DHT22;855;48.824;9.220;2022-10-23T05:17:40;12.90;95.50
1716;DHT22;855;48.824;9.220;2022-10-23T05:20:14;12.90;95.50
1716;DHT22;855;48.824;9.220;2022-10-23T05:22:43;12.90;95.50
1716;DHT22;855;48.824;9.220;2022-10-23T05:25:12;12.80;95.50
1716;DHT22;855;48.824;9.220;2022-10-23T05:27:39;12.90;95.50
1716;DHT22;855;48.824;9.220;2022-10-23T05:30:06;12.90;95.40
1716;DHT22;855;48.824;9.220;2022-10-23T05:32:34;12.90;95.30
1716;DHT22;855;48.824;9.220;2022-10-23T05:35:05;12.90;95.30
1716;DHT22;855;48.824;9.220;2022-10-23T05:37:35;12.90;95.30
1716;DHT22;855;48.824;9.220;2022-10-23T05:40:03;12.80;95.40
1716;DHT22;855;48.824;9.220;2022-10-23T05:42:30;12.90;95.40
1716;DHT22;855;48.824;9.220;2022-10-23T05:44:56;12.90;95.40
1716;DHT22;855;48.824;9.220;2022-10-23T05:47:23;12.80;95.60
1716;DHT22;855;48.824;9.220;2022-10-23T05:49:50;12.90;95.70
1716;DHT22;855;48.824;9.220;2022-10-23T05:52:17;12.90;95.70
1716;DHT22;855;48.824;9.220;2022-10-23T05:54:46;12.90;95.50
1716;DHT22;855;48.824;9.220;2022-10-23T05:57:12;12.90;95.50
1716;DHT22;855;48.824;9.220;2022-10-23T05:59:39;13.00;95.50
1716;DHT22;855;48.824;9.220;2022-10-23T06:02:06;13.00;95.30
1716;DHT22;855;48.824;9.220;2022-10-23T06:04:33;13.00;95.70
1716;DHT22;855;48.824;9.220;2022-10-23T06:07:00;13.10;97.10
1716;DHT22;855;48.824;9.220;2022-10-23T06:09:27;13.20;97.40
1716;DHT22;855;48.824;9.220;2022-10-23T06:14:31;13.30;97.40
1716;DHT22;855;48.824;9.220;2022-10-23T06:16:58;13.30;97.10
1716;DHT22;855;48.824;9.220;2022-10-23T06:22:00;13.40;96.50
1716;DHT22;855;48.824;9.220;2022-10-23T06:27:03;13.40;95.70
1716;DHT22;855;48.824;9.220;2022-10-23T06:29:32;13.40;95.40
1716;DHT22;855;48.824;9.220;2022-10-23T06:31:59;13.40;95.50
1716;DHT22;855;48.824;9.220;2022-10-23T06:37:14;13.40;95.30
1716;DHT22;855;48.824;9.220;2022-10-23T06:39:41;13.30;95.30
1716;DHT22;855;48.824;9.220;2022-10-23T06:44:45;13.40;95.60
1716;DHT22;855;48.824;9.220;2022-10-23T06:49:48;13.30;96.00
1716;DHT22;855;48.824;9.220;2022-10-23T06:52:15;13.30;96.10
1716;DHT22;855;48.824;9.220;2022-10-23T06:54:42;13.40;96.10
1716;DHT22;855;48.824;9.220;2022-10-23T06:57:10;13.50;96.10
1716;DHT22;855;48.824;9.220;2022-10-23T06:59:37;13.50;96.00
1716;DHT22;855;48.824;9.220;2022-10-23T07:02:05;13.30;96.00
1716;DHT22;855;48.824;9.220;2022-10-23T07:09:43;13.20;96.60
1716;DHT22;855;48.824;9.220;2022-10-23T07:12:11;13.30;96.70
1716;DHT22;855;48.824;9.220;2022-10-23T07:14:38;13.40;96.90
1716;DHT22;855;48.824;9.220;2022-10-23T07:17:07;13.50;96.60
1716;DHT22;855;48.824;9.220;2022-10-23T07:19:34;13.40;96.70
1716;DHT22;855;48.824;9.220;2022-10-23T07:22:02;13.50;96.50
1716;DHT22;855;48.824;9.220;2022-10-23T07:27:04;13.80;96.10
1716;DHT22;855;48.824;9.220;2022-10-23T07:29:32;13.80;95.50
1716;DHT22;855;48.824;9.220;2022-10-23T07:31:59;14.00;95.60
1716;DHT22;855;48.824;9.220;2022-10-23T07:34:27;14.10;95.30
1716;DHT22;855;48.824;9.220;2022-10-23T07:36:56;14.20;94.80
1716;DHT22;855;48.824;9.220;2022-10-23T07:39:23;14.30;94.60
1716;DHT22;855;48.824;9.220;2022-10-23T07:41:50;14.40;94.30
1716;DHT22;855;48.824;9.220;2022-10-23T07:44:17;14.50;94.00
1716;DHT22;855;48.824;9.220;2022-10-23T07:46:44;14.60;93.80
1716;DHT22;855;48.824;9.220;2022-10-23T07:49:11;14.70;93.70
1716;DHT22;855;48.824;9.220;2022-10-23T07:51:40;14.70;92.80
1716;DHT22;855;48.824;9.220;2022-10-23T07:54:08;14.70;93.00
1716;DHT22;855;48.824;9.220;2022-10-23T07:56:37;14.80;92.60
1716;DHT22;855;48.824;9.220;2022-10-23T07:59:04;14.90;92.70
1716;DHT22;855;48.824;9.220;2022-10-23T08:01:32;15.00;92.10
1716;DHT22;855;48.824;9.220;2022-10-23T08:04:00;15.10;91.90
1716;DHT22;855;48.824;9.220;2022-10-23T08:06:27;15.10;91.90
1716;DHT22;855;48.824;9.220;2022-10-23T08:08:56;15.20;91.30
1716;DHT22;855;48.824;9.220;2022-10-23T08:11:24;15.20;91.60
1716;DHT22;855;48.824;9.220;2022-10-23T08:13:54;15.30;90.90
1716;DHT22;855;48.824;9.220;2022-10-23T08:16:22;15.30;90.40
1716;DHT22;855;48.824;9.220;2022-10-23T08:21:25;15.50;90.40
1716;DHT22;855;48.824;9.220;2022-10-23T08:23:53;15.60;90.20
1716;DHT22;855;48.824;9.220;2022-10-23T08:26:22;15.70;89.90
1716;DHT22;855;48.824;9.220;2022-10-23T08:28:50;15.70;89.90
1716;DHT22;855;48.824;9.220;2022-10-23T08:31:19;15.90;90.10
1716;DHT22;855;48.824;9.220;2022-10-23T08:33:47;16.10;89.50
1716;DHT22;855;48.824;9.220;2022-10-23T08:36:16;16.20;89.10
1716;DHT22;855;48.824;9.220;2022-10-23T08:38:44;16.40;88.20
1716;DHT22;855;48.824;9.220;2022-10-23T08:41:22;16.60;88.30
1716;DHT22;855;48.824;9.220;2022-10-23T08:43:53;16.70;87.10
1716;DHT22;855;48.824;9.220;2022-10-23T08:46:25;16.80;86.50
1716;DHT22;855;48.824;9.220;2022-10-23T08:48:57;16.90;86.50
1716;DHT22;855;48.824;9.220;2022-10-23T08:51:33;17.00;86.00
1716;DHT22;855;48.824;9.220;2022-10-23T08:54:05;17.10;86.00
1716;DHT22;855;48.824;9.220;2022-10-23T08:56:37;17.20;85.80
1716;DHT22;855;48.824;9.220;2022-10-23T08:59:12;17.30;85.30
1716;DHT22;855;48.824;9.220;2022-10-23T09:01:48;17.30;84.90
1716;DHT22;855;48.824;9.220;2022-10-23T09:04:17;17.50;84.50
1716;DHT22;855;48.824;9.220;2022-10-23T09:06:50;17.70;84.10
1716;DHT22;855;48.824;9.220;2022-10-23T09:09:39;17.80;83.40
1716;DHT22;855;48.824;9.220;2022-10-23T09:14:59;18.00;82.50
1716;DHT22;855;48.824;9.220;2022-10-23T09:17:29;18.10;82.30
1716;DHT22;855;48.824;9.220;2022-10-23T09:20:00;18.20;82.10
1716;DHT22;855;48.824;9.220;2022-10-23T09:22:30;18.30;81.60
1716;DHT22;855;48.824;9.220;2022-10-23T09:27:33;18.50;80.70
1716;DHT22;855;48.824;9.220;2022-10-23T09:32:44;18.40;79.30
1716;DHT22;855;48.824;9.220;2022-10-23T09:35:20;18.30;79.60
1716;DHT22;855;48.824;9.220;2022-10-23T09:40:30;18.50;79.90
1716;DHT22;855;48.824;9.220;2022-10-23T09:43:01;18.60;79.90
1716;DHT22;855;48.824;9.220;2022-10-23T09:45:31;18.70;78.80
1716;DHT22;855;48.824;9.220;2022-10-23T09:48:12;18.70;79.50
1716;DHT22;855;48.824;9.220;2022-10-23T09:50:48;18.80;78.70
1716;DHT22;855;48.824;9.220;2022-10-23T09:53:29;18.90;78.80
1716;DHT22;855;48.824;9.220;2022-10-23T09:56:00;19.00;78.80
1716;DHT22;855;48.824;9.220;2022-10-23T09:58:35;19.10;78.40
1716;DHT22;855;48.824;9.220;2022-10-23T10:01:04;19.20;78.70
1716;DHT22;855;48.824;9.220;2022-10-23T10:06:22;19.30;77.20
1716;DHT22;855;48.824;9.220;2022-10-23T10:08:52;19.40;77.40
1716;DHT22;855;48.824;9.220;2022-10-23T10:11:24;19.50;77.40
1716;DHT22;855;48.824;9.220;2022-10-23T10:14:15;19.70;77.10
1716;DHT22;855;48.824;9.220;2022-10-23T10:16:49;19.80;76.40
1716;DHT22;855;48.824;9.220;2022-10-23T10:24:33;20.30;76.20
1716;DHT22;855;48.824;9.220;2022-10-23T10:29:54;20.40;75.30
1716;DHT22;855;48.824;9.220;2022-10-23T10:32:33;20.50;74.30
1716;DHT22;855;48.824;9.220;2022-10-23T10:35:09;20.60;73.50
1716;DHT22;855;48.824;9.220;2022-10-23T10:37:50;20.60;72.20
1716;DHT22;855;48.824;9.220;2022-10-23T10:40:26;20.70;72.90
1716;DHT22;855;48.824;9.220;2022-10-23T10:43:13;20.90;72.70
1716;DHT22;855;48.824;9.220;2022-10-23T10:51:19;21.30;71.00
1716;DHT22;855;48.824;9.220;2022-10-23T10:53:58;21.40;70.80
1716;DHT22;855;48.824;9.220;2022-10-23T10:56:31;21.40;69.80
1716;DHT22;855;48.824;9.220;2022-10-23T10:59:02;21.50;69.70
1716;DHT22;855;48.824;9.220;2022-10-23T11:01:33;21.60;70.20
1716;DHT22;855;48.824;9.220;2022-10-23T11:04:05;21.80;70.80
1716;DHT22;855;48.824;9.220;2022-10-23T11:06:37;21.90;69.60
1716;DHT22;855;48.824;9.220;2022-10-23T11:09:18;21.90;70.50
1716;DHT22;855;48.824;9.220;2022-10-23T11:11:47;22.00;70.40
1716;DHT22;855;48.824;9.220;2022-10-23T11:14:15;22.10;69.40
1716;DHT22;855;48.824;9.220;2022-10-23T11:16:46;22.20;68.60
1716;DHT22;855;48.824;9.220;2022-10-23T11:19:19;22.40;68.40
1716;DHT22;855;48.824;9.220;2022-10-23T11:21:53;22.50;67.10
1716;DHT22;855;48.824;9.220;2022-10-23T11:24:51;22.50;67.30
1716;DHT22;855;48.824;9.220;2022-10-23T11:27:30;22.50;66.80
1716;DHT22;855;48.824;9.220;2022-10-23T11:30:21;22.50;66.70
1716;DHT22;855;48.824;9.220;2022-10-23T11:35:53;22.40;67.30
1716;DHT22;855;48.824;9.220;2022-10-23T11:38:25;22.50;66.80
1716;DHT22;855;48.824;9.220;2022-10-23T11:40:56;22.40;66.70
1716;DHT22;855;48.824;9.220;2022-10-23T11:43:30;22.50;67.30
1716;DHT22;855;48.824;9.220;2022-10-23T11:45:58;22.40;67.20
1716;DHT22;855;48.824;9.220;2022-10-23T11:48:38;22.50;68.00
1716;DHT22;855;48.824;9.220;2022-10-23T11:51:25;22.60;68.40
1716;DHT22;855;48.824;9.220;2022-10-23T11:54:04;22.70;68.00
1716;DHT22;855;48.824;9.220;2022-10-23T11:56:31;22.60;66.70
1716;DHT22;855;48.824;9.220;2022-10-23T11:59:18;22.50;66.50
1716;DHT22;855;48.824;9.220;2022-10-23T12:01:48;22.60;67.50
1716;DHT22;855;48.824;9.220;2022-10-23T12:04:20;22.60;67.20
1716;DHT22;855;48.824;9.220;2022-10-23T12:06:50;22.40;66.50
1716;DHT22;855;48.824;9.220;2022-10-23T12:09:24;22.40;66.10
1716;DHT22;855;48.824;9.220;2022-10-23T12:12:15;22.30;67.30
1716;DHT22;855;48.824;9.220;2022-10-23T12:14:45;22.40;66.90
1716;DHT22;855;48.824;9.220;2022-10-23T12:17:28;22.40;66.40
1716;DHT22;855;48.824;9.220;2022-10-23T12:20:03;22.40;67.10
1716;DHT22;855;48.824;9.220;2022-10-23T12:22:35;22.60;67.10
1716;DHT22;855;48.824;9.220;2022-10-23T12:25:06;22.60;66.80
1716;DHT22;855;48.824;9.220;2022-10-23T12:27:40;22.70;67.90
1716;DHT22;855;48.824;9.220;2022-10-23T12:30:22;22.80;66.40
1716;DHT22;855;48.824;9.220;2022-10-23T12:33:04;22.90;67.50
1716;DHT22;855;48.824;9.220;2022-10-23T12:35:50;22.90;67.50
1716;DHT22;855;48.824;9.220;2022-10-23T12:38:21;22.90;66.00
1716;DHT22;855;48.824;9.220;2022-10-23T12:40:51;22.90;66.10
1716;DHT22;855;48.824;9.220;2022-10-23T12:43:25;23.00;67.10
1716;DHT22;855;48.824;9.220;2022-10-23T12:45:54;23.20;66.70
1716;DHT22;855;48.824;9.220;2022-10-23T12:48:23;23.40;65.20
1716;DHT22;855;48.824;9.220;2022-10-23T12:50:51;23.40;65.70
1716;DHT22;855;48.824;9.220;2022-10-23T12:53:19;23.60;64.40
1716;DHT22;855;48.824;9.220;2022-10-23T12:55:50;23.40;63.80
1716;DHT22;855;48.824;9.220;2022-10-23T12:58:20;23.30;64.90
1716;DHT22;855;48.824;9.220;2022-10-23T13:00:51;23.50;64.80
1716;DHT22;855;48.824;9.220;2022-10-23T13:03:21;23.50;65.10
1716;DHT22;855;48.824;9.220;2022-10-23T13:05:50;23.60;64.70
1716;DHT22;855;48.824;9.220;2022-10-23T13:08:18;23.60;64.40
1716;DHT22;855;48.824;9.220;2022-10-23T13:10:45;23.50;64.70
1716;DHT22;855;48.824;9.220;2022-10-23T13:13:15;23.50;65.30
1716;DHT22;855;48.824;9.220;2022-10-23T13:15:44;23.60;64.50
1716;DHT22;855;48.824;9.220;2022-10-23T13:18:12;23.50;64.50
1716;DHT22;855;48.824;9.220;2022-10-23T13:20:42;23.40;64.50
1716;DHT22;855;48.824;9.220;2022-10-23T13:23:30;23.30;64.90
1716;DHT22;855;48.824;9.220;2022-10-23T13:25:58;23.50;64.90
1716;DHT22;855;48.824;9.220;2022-10-23T13:28:26;23.70;64.50
1716;DHT22;855;48.824;9.220;2022-10-23T13:31:22;23.90;64.50
1716;DHT22;855;48.824;9.220;2022-10-23T13:33:50;24.00;64.80
1716;DHT22;855;48.824;9.220;2022-10-23T13:36:23;24.10;64.40
1716;DHT22;855;48.824;9.220;2022-10-23T13:39:00;24.20;63.60
1716;DHT22;855;48.824;9.220;2022-10-23T13:41:32;24.20;63.40
1716;DHT22;855;48.824;9.220;2022-10-23T13:44:00;24.20;63.10
1716;DHT22;855;48.824;9.220;2022-10-23T13:46:27;24.20;64.50
1716;DHT22;855;48.824;9.220;2022-10-23T13:48:53;24.20;64.70
1716;DHT22;855;48.824;9.220;2022-10-23T13:51:23;24.20;65.30
1716;DHT22;855;48.824;9.220;2022-10-23T13:53:51;24.20;65.10
1716;DHT22;855;48.824;9.220;2022-10-23T13:56:19;24.20;64.80
1716;DHT22;855;48.824;9.220;2022-10-23T13:58:47;24.30;64.50
1716;DHT22;855;48.824;9.220;2022-10-23T14:01:19;24.30;64.30
1716;DHT22;855;48.824;9.220;2022-10-23T14:03:47;24.40;65.10
1716;DHT22;855;48.824;9.220;2022-10-23T14:06:14;24.40;64.90
1716;DHT22;855;48.824;9.220;2022-10-23T14:08:42;24.50;65.20
1716;DHT22;855;48.824;9.220;2022-10-23T14:11:10;24.50;66.70
1716;DHT22;855;48.824;9.220;2022-10-23T14:13:37;24.50;66.80
1716;DHT22;855;48.824;9.220;2022-10-23T14:16:04;24.50;67.30
1716;DHT22;855;48.824;9.220;2022-10-23T14:18:31;24.50;67.50
1716;DHT22;855;48.824;9.220;2022-10-23T14:20:59;24.40;67.70
1716;DHT22;855;48.824;9.220;2022-10-23T14:23:26;24.30;68.50
1716;DHT22;855;48.824;9.220;2022-10-23T14:26:01;24.20;69.30
1716;DHT22;855;48.824;9.220;2022-10-23T14:28:28;24.00;70.00
1716;DHT22;855;48.824;9.220;2022-10-23T14:30:55;23.90;71.00
1716;DHT22;855;48.824;9.220;2022-10-23T14:33:23;23.80;71.60
1716;DHT22;855;48.824;9.220;2022-10-23T14:35:50;23.80;71.70
1716;DHT22;855;48.824;9.220;2022-10-23T14:38:17;23.80;73.00
1716;DHT22;855;48.824;9.220;2022-10-23T14:40:44;23.80;73.40
1716;DHT22;855;48.824;9.220;2022-10-23T14:43:12;23.80;73.70
1716;DHT22;855;48.824;9.220;2022-10-23T14:45:39;23.80;73.80
1716;DHT22;855;48.824;9.220;2022-10-23T14:48:05;23.70;74.50
1716;DHT22;855;48.824;9.220;2022-10-23T14:50:34;23.70;74.60
1716;DHT22;855;48.824;9.220;2022-10-23T14:53:01;23.50;75.40
1716;DHT22;855;48.824;9.220;2022-10-23T14:55:29;23.20;76.60
1716;DHT22;855;48.824;9.220;2022-10-23T14:57:56;23.00;76.70
1716;DHT22;855;48.824;9.220;2022-10-23T15:00:24;23.00;75.90
1716;DHT22;855;48.824;9.220;2022-10-23T15:02:51;23.10;76.20
1716;DHT22;855;48.824;9.220;2022-10-23T15:05:18;23.10;76.40
1716;DHT22;855;48.824;9.220;2022-10-23T15:07:45;23.00;77.10
1716;DHT22;855;48.824;9.220;2022-10-23T15:10:11;22.80;78.40
1716;DHT22;855;48.824;9.220;2022-10-23T15:12:38;22.70;78.30
1716;DHT22;855;48.824;9.220;2022-10-23T15:15:06;22.50;79.70
1716;DHT22;855;48.824;9.220;2022-10-23T15:17:35;22.20;81.60
1716;DHT22;855;48.824;9.220;2022-10-23T15:20:04;22.10;81.60
1716;DHT22;855;48.824;9.220;2022-10-23T15:22:32;22.10;81.90
1716;DHT22;855;48.824;9.220;2022-10-23T15:24:59;22.10;81.70
1716;DHT22;855;48.824;9.220;2022-10-23T15:27:25;22.00;81.90
1716;DHT22;855;48.824;9.220;2022-10-23T15:29:52;21.90;82.30
1716;DHT22;855;48.824;9.220;2022-10-23T15:32:19;21.90;82.30
1716;DHT22;855;48.824;9.220;2022-10-23T15:34:47;21.90;82.40
1716;DHT22;855;48.824;9.220;2022-10-23T15:37:14;21.90;82.30
1716;DHT22;855;48.824;9.220;2022-10-23T15:39:41;21.90;82.70
1716;DHT22;855;48.824;9.220;2022-10-23T15:42:09;21.80;82.80
1716;DHT22;855;48.824;9.220;2022-10-23T15:44:36;21.80;81.60
1716;DHT22;855;48.824;9.220;2022-10-23T15:47:04;21.70;82.50
1716;DHT22;855;48.824;9.220;2022-10-23T15:49:31;21.60;82.00
1716;DHT22;855;48.824;9.220;2022-10-23T15:51:59;21.60;80.50
1716;DHT22;855;48.824;9.220;2022-10-23T15:54:28;21.60;81.30
1716;DHT22;855;48.824;9.220;2022-10-23T15:56:55;21.70;79.70
1716;DHT22;855;48.824;9.220;2022-10-23T15:59:23;21.70;79.60
1716;DHT22;855;48.824;9.220;2022-10-23T16:01:51;21.70;80.50
1716;DHT22;855;48.824;9.220;2022-10-23T16:04:18;21.80;81.30
1716;DHT22;855;48.824;9.220;2022-10-23T16:06:45;21.60;82.00
1716;DHT22;855;48.824;9.220;2022-10-23T16:09:13;21.40;82.70
1716;DHT22;855;48.824;9.220;2022-10-23T16:11:42;21.40;80.70
1716;DHT22;855;48.824;9.220;2022-10-23T16:14:11;21.40;80.70
1716;DHT22;855;48.824;9.220;2022-10-23T16:16:38;21.40;80.70
1716;DHT22;855;48.824;9.220;2022-10-23T16:19:05;21.40;81.20
1716;DHT22;855;48.824;9.220;2022-10-23T16:21:34;21.40;82.30
1716;DHT22;855;48.824;9.220;2022-10-23T16:24:04;21.20;83.60
1716;DHT22;855;48.824;9.220;2022-10-23T16:26:33;21.10;84.00
1716;DHT22;855;48.824;9.220;2022-10-23T16:29:03;21.00;83.30
1716;DHT22;855;48.824;9.220;2022-10-23T16:31:30;20.90;82.30
1716;DHT22;855;48.824;9.220;2022-10-23T16:33:58;20.70;82.90
1716;DHT22;855;48.824;9.220;2022-10-23T16:36:26;20.50;82.70
1716;DHT22;855;48.824;9.220;2022-10-23T16:38:52;20.60;82.40
1716;DHT22;855;48.824;9.220;2022-10-23T16:41:19;20.70;82.00
1716;DHT22;855;48.824;9.220;2022-10-23T16:43:47;20.70;81.60
1716;DHT22;855;48.824;9.220;2022-10-23T16:46:16;20.80;81.70
1716;DHT22;855;48.824;9.220;2022-10-23T16:51:13;20.60;82.10
1716;DHT22;855;48.824;9.220;2022-10-23T16:58:54;20.60;82.50
1716;DHT22;855;48.824;9.220;2022-10-23T17:01:22;20.60;82.80
1716;DHT22;855;48.824;9.220;2022-10-23T17:03:51;20.70;82.80
1716;DHT22;855;48.824;9.220;2022-10-23T17:22:23;20.70;82.10
1716;DHT22;855;48.824;9.220;2022-10-23T17:27:31;20.60;82.30
1716;DHT22;855;48.824;9.220;2022-10-23T17:30:16;20.60;82.10
1716;DHT22;855;48.824;9.220;2022-10-23T17:32:50;20.60;82.00
1716;DHT22;855;48.824;9.220;2022-10-23T17:35:19;20.70;81.90
1716;DHT22;855;48.824;9.220;2022-10-23T17:37:54;20.80;81.70
1716;DHT22;855;48.824;9.220;2022-10-23T17:40:21;20.80;81.60
1716;DHT22;855;48.824;9.220;2022-10-23T17:46:17;20.90;82.00
1716;DHT22;855;48.824;9.220;2022-10-23T17:52:08;21.10;81.70
1716;DHT22;855;48.824;9.220;2022-10-23T17:55:23;21.00;83.30
1716;DHT22;855;48.824;9.220;2022-10-23T17:58:09;20.90;83.70
1716;DHT22;855;48.824;9.220;2022-10-23T18:00:47;20.80;84.40
1716;DHT22;855;48.824;9.220;2022-10-23T18:03:26;20.70;84.40
1716;DHT22;855;48.824;9.220;2022-10-23T18:09:01;20.80;84.40